Terminal Aerodrome Forecast
Issued by NWS

Home | Current Version | Previous Version | Text Only | Print | Product List | Glossary Off
Versions: 1 2 3 4 5 6 7 8 9 10 11 12 13 14 15

696
FTUS43 KICT 021729
TAFHUT
TAF
KHUT 021729Z 0218/0318 05004KT P6SM OVC150
     FM030600 05006KT P6SM OVC090
     FM031200 05005KT P6SM OVC040
     FM031600 09007KT P6SM -RA OVC020=

USA.gov is the U.S. government's official web portal to all federal, state and local government web resources and services.